sensor_id;sensor_type;location;lat;lon;timestamp;P1;durP1;ratioP1;P2;durP2;ratioP2
16973;SDS011;8603;46.944;7.412;2023-04-01T00:00:05;3.57;;;1.30;;
16973;SDS011;8603;46.944;7.412;2023-04-01T00:02:32;6.17;;;1.20;;
16973;SDS011;8603;46.944;7.412;2023-04-01T00:04:57;6.53;;;1.60;;
16973;SDS011;8603;46.944;7.412;2023-04-01T00:07:23;3.00;;;0.97;;
16973;SDS011;8603;46.944;7.412;2023-04-01T00:09:48;4.70;;;1.00;;
16973;SDS011;8603;46.944;7.412;2023-04-01T00:12:17;1.80;;;1.10;;
16973;SDS011;8603;46.944;7.412;2023-04-01T00:14:42;3.43;;;1.20;;
16973;SDS011;8603;46.944;7.412;2023-04-01T00:17:08;2.30;;;1.20;;
16973;SDS011;8603;46.944;7.412;2023-04-01T00:19:34;3.57;;;1.43;;
16973;SDS011;8603;46.944;7.412;2023-04-01T00:22:00;3.97;;;1.50;;
16973;SDS011;8603;46.944;7.412;2023-04-01T00:24:26;3.77;;;1.50;;
16973;SDS011;8603;46.944;7.412;2023-04-01T00:26:51;2.73;;;0.97;;
16973;SDS011;8603;46.944;7.412;2023-04-01T00:29:17;3.43;;;1.10;;
16973;SDS011;8603;46.944;7.412;2023-04-01T00:31:43;1.80;;;1.10;;
16973;SDS011;8603;46.944;7.412;2023-04-01T00:34:08;3.50;;;1.10;;
16973;SDS011;8603;46.944;7.412;2023-04-01T00:36:39;5.57;;;1.10;;
16973;SDS011;8603;46.944;7.412;2023-04-01T00:39:05;3.13;;;1.43;;
16973;SDS011;8603;46.944;7.412;2023-04-01T00:41:30;3.07;;;1.10;;
16973;SDS011;8603;46.944;7.412;2023-04-01T00:47:07;1.63;;;1.27;;
16973;SDS011;8603;46.944;7.412;2023-04-01T00:49:34;1.20;;;0.90;;
16973;SDS011;8603;46.944;7.412;2023-04-01T00:52:11;4.83;;;1.10;;
16973;SDS011;8603;46.944;7.412;2023-04-01T00:54:45;1.03;;;0.97;;
16973;SDS011;8603;46.944;7.412;2023-04-01T00:57:29;2.90;;;1.10;;
16973;SDS011;8603;46.944;7.412;2023-04-01T01:00:01;5.17;;;1.10;;
16973;SDS011;8603;46.944;7.412;2023-04-01T01:02:34;3.73;;;1.00;;
16973;SDS011;8603;46.944;7.412;2023-04-01T01:05:00;1.73;;;1.00;;
16973;SDS011;8603;46.944;7.412;2023-04-01T01:15:29;1.50;;;0.80;;
16973;SDS011;8603;46.944;7.412;2023-04-01T01:32:01;4.97;;;1.23;;
16973;SDS011;8603;46.944;7.412;2023-04-01T01:37:09;4.83;;;1.33;;
16973;SDS011;8603;46.944;7.412;2023-04-01T01:39:50;4.03;;;1.33;;
16973;SDS011;8603;46.944;7.412;2023-04-01T01:42:21;4.77;;;1.57;;
16973;SDS011;8603;46.944;7.412;2023-04-01T01:44:52;3.13;;;1.27;;
16973;SDS011;8603;46.944;7.412;2023-04-01T01:47:21;3.47;;;1.23;;
16973;SDS011;8603;46.944;7.412;2023-04-01T01:49:48;3.90;;;1.20;;
16973;SDS011;8603;46.944;7.412;2023-04-01T01:52:22;2.53;;;1.23;;
16973;SDS011;8603;46.944;7.412;2023-04-01T01:54:49;4.20;;;1.30;;
16973;SDS011;8603;46.944;7.412;2023-04-01T01:57:32;2.47;;;1.20;;
16973;SDS011;8603;46.944;7.412;2023-04-01T02:00:06;2.13;;;1.33;;
16973;SDS011;8603;46.944;7.412;2023-04-01T02:02:45;3.00;;;1.30;;
16973;SDS011;8603;46.944;7.412;2023-04-01T02:05:14;4.50;;;1.47;;
16973;SDS011;8603;46.944;7.412;2023-04-01T02:07:50;4.37;;;1.33;;
16973;SDS011;8603;46.944;7.412;2023-04-01T02:10:28;5.00;;;1.93;;
16973;SDS011;8603;46.944;7.412;2023-04-01T02:12:59;2.67;;;1.20;;
16973;SDS011;8603;46.944;7.412;2023-04-01T02:15:31;3.50;;;1.30;;
16973;SDS011;8603;46.944;7.412;2023-04-01T02:18:07;5.07;;;1.80;;
16973;SDS011;8603;46.944;7.412;2023-04-01T02:20:33;3.73;;;1.23;;
16973;SDS011;8603;46.944;7.412;2023-04-01T02:23:04;3.17;;;1.53;;
16973;SDS011;8603;46.944;7.412;2023-04-01T02:25:33;4.40;;;1.30;;
16973;SDS011;8603;46.944;7.412;2023-04-01T02:28:01;3.20;;;1.30;;
16973;SDS011;8603;46.944;7.412;2023-04-01T02:30:43;3.40;;;1.10;;
16973;SDS011;8603;46.944;7.412;2023-04-01T02:33:14;3.67;;;1.33;;
16973;SDS011;8603;46.944;7.412;2023-04-01T02:35:43;3.27;;;1.20;;
16973;SDS011;8603;46.944;7.412;2023-04-01T02:38:09;4.70;;;1.20;;
16973;SDS011;8603;46.944;7.412;2023-04-01T02:40:48;4.47;;;1.20;;
16973;SDS011;8603;46.944;7.412;2023-04-01T02:43:21;3.40;;;1.10;;
16973;SDS011;8603;46.944;7.412;2023-04-01T02:45:49;3.60;;;1.10;;
16973;SDS011;8603;46.944;7.412;2023-04-01T02:48:15;2.50;;;1.00;;
16973;SDS011;8603;46.944;7.412;2023-04-01T02:50:41;2.57;;;1.20;;
16973;SDS011;8603;46.944;7.412;2023-04-01T02:53:16;1.10;;;0.83;;
16973;SDS011;8603;46.944;7.412;2023-04-01T02:55:48;4.23;;;1.40;;
16973;SDS011;8603;46.944;7.412;2023-04-01T02:58:18;3.53;;;1.20;;
16973;SDS011;8603;46.944;7.412;2023-04-01T03:00:52;1.97;;;0.90;;
16973;SDS011;8603;46.944;7.412;2023-04-01T03:03:17;1.17;;;1.00;;
16973;SDS011;8603;46.944;7.412;2023-04-01T03:05:50;2.37;;;1.00;;
16973;SDS011;8603;46.944;7.412;2023-04-01T03:08:19;2.30;;;0.90;;
16973;SDS011;8603;46.944;7.412;2023-04-01T03:10:47;4.10;;;1.10;;
16973;SDS011;8603;46.944;7.412;2023-04-01T03:13:13;3.97;;;1.20;;
16973;SDS011;8603;46.944;7.412;2023-04-01T03:15:41;2.17;;;1.10;;
16973;SDS011;8603;46.944;7.412;2023-04-01T03:18:07;3.00;;;1.10;;
16973;SDS011;8603;46.944;7.412;2023-04-01T03:20:32;2.07;;;1.07;;
16973;SDS011;8603;46.944;7.412;2023-04-01T03:23:01;3.93;;;1.50;;
16973;SDS011;8603;46.944;7.412;2023-04-01T03:25:26;3.73;;;0.80;;
16973;SDS011;8603;46.944;7.412;2023-04-01T03:27:53;2.67;;;1.00;;
16973;SDS011;8603;46.944;7.412;2023-04-01T03:30:19;0.77;;;0.77;;
16973;SDS011;8603;46.944;7.412;2023-04-01T03:32:44;4.37;;;1.10;;
16973;SDS011;8603;46.944;7.412;2023-04-01T03:35:10;4.70;;;1.13;;
16973;SDS011;8603;46.944;7.412;2023-04-01T03:37:36;3.20;;;1.17;;
16973;SDS011;8603;46.944;7.412;2023-04-01T03:40:06;2.87;;;1.10;;
16973;SDS011;8603;46.944;7.412;2023-04-01T03:42:35;3.40;;;1.00;;
16973;SDS011;8603;46.944;7.412;2023-04-01T03:45:01;1.77;;;0.90;;
16973;SDS011;8603;46.944;7.412;2023-04-01T03:47:29;3.40;;;1.00;;
16973;SDS011;8603;46.944;7.412;2023-04-01T03:49:58;2.70;;;1.40;;
16973;SDS011;8603;46.944;7.412;2023-04-01T03:52:24;1.60;;;0.90;;
16973;SDS011;8603;46.944;7.412;2023-04-01T03:54:50;1.53;;;0.83;;
16973;SDS011;8603;46.944;7.412;2023-04-01T03:57:15;2.10;;;0.93;;
16973;SDS011;8603;46.944;7.412;2023-04-01T03:59:41;2.00;;;1.07;;
16973;SDS011;8603;46.944;7.412;2023-04-01T04:02:07;1.90;;;0.90;;
16973;SDS011;8603;46.944;7.412;2023-04-01T04:04:32;2.10;;;0.90;;
16973;SDS011;8603;46.944;7.412;2023-04-01T04:07:01;1.00;;;0.90;;
16973;SDS011;8603;46.944;7.412;2023-04-01T04:09:27;2.17;;;0.80;;
16973;SDS011;8603;46.944;7.412;2023-04-01T04:11:54;0.80;;;0.80;;
16973;SDS011;8603;46.944;7.412;2023-04-01T04:14:23;0.97;;;0.60;;
16973;SDS011;8603;46.944;7.412;2023-04-01T04:16:54;2.37;;;0.93;;
16973;SDS011;8603;46.944;7.412;2023-04-01T04:19:20;1.63;;;0.67;;
16973;SDS011;8603;46.944;7.412;2023-04-01T04:21:54;2.00;;;1.20;;
16973;SDS011;8603;46.944;7.412;2023-04-01T04:24:25;0.83;;;0.70;;
16973;SDS011;8603;46.944;7.412;2023-04-01T04:26:52;0.77;;;0.77;;
16973;SDS011;8603;46.944;7.412;2023-04-01T04:29:18;1.97;;;0.80;;
16973;SDS011;8603;46.944;7.412;2023-04-01T04:31:43;1.60;;;0.60;;
16973;SDS011;8603;46.944;7.412;2023-04-01T04:34:09;1.40;;;0.77;;
16973;SDS011;8603;46.944;7.412;2023-04-01T04:36:58;2.20;;;0.80;;
16973;SDS011;8603;46.944;7.412;2023-04-01T04:39:31;2.40;;;1.10;;
16973;SDS011;8603;46.944;7.412;2023-04-01T04:41:59;1.13;;;0.87;;
16973;SDS011;8603;46.944;7.412;2023-04-01T04:44:24;1.40;;;1.00;;
16973;SDS011;8603;46.944;7.412;2023-04-01T04:46:50;1.07;;;0.90;;
16973;SDS011;8603;46.944;7.412;2023-04-01T04:49:16;1.13;;;0.87;;
16973;SDS011;8603;46.944;7.412;2023-04-01T04:51:42;0.80;;;0.80;;
16973;SDS011;8603;46.944;7.412;2023-04-01T04:54:12;2.93;;;0.90;;
16973;SDS011;8603;46.944;7.412;2023-04-01T04:56:42;1.00;;;0.80;;
16973;SDS011;8603;46.944;7.412;2023-04-01T04:59:07;1.30;;;1.13;;
16973;SDS011;8603;46.944;7.412;2023-04-01T05:01:33;0.70;;;0.70;;
16973;SDS011;8603;46.944;7.412;2023-04-01T05:03:59;4.87;;;1.33;;
16973;SDS011;8603;46.944;7.412;2023-04-01T05:06:25;3.07;;;0.80;;
16973;SDS011;8603;46.944;7.412;2023-04-01T05:08:54;1.00;;;0.70;;
16973;SDS011;8603;46.944;7.412;2023-04-01T05:11:20;2.00;;;0.87;;
16973;SDS011;8603;46.944;7.412;2023-04-01T05:13:51;1.43;;;0.80;;
16973;SDS011;8603;46.944;7.412;2023-04-01T05:16:22;0.77;;;0.77;;
16973;SDS011;8603;46.944;7.412;2023-04-01T05:18:51;0.60;;;0.60;;
16973;SDS011;8603;46.944;7.412;2023-04-01T05:21:17;1.93;;;1.10;;
16973;SDS011;8603;46.944;7.412;2023-04-01T05:23:43;0.80;;;0.70;;
16973;SDS011;8603;46.944;7.412;2023-04-01T05:26:10;1.87;;;1.67;;
16973;SDS011;8603;46.944;7.412;2023-04-01T05:28:37;2.03;;;1.50;;
16973;SDS011;8603;46.944;7.412;2023-04-01T05:31:13;2.00;;;1.07;;
16973;SDS011;8603;46.944;7.412;2023-04-01T05:33:42;1.67;;;1.00;;
16973;SDS011;8603;46.944;7.412;2023-04-01T05:36:19;2.00;;;0.80;;
16973;SDS011;8603;46.944;7.412;2023-04-01T05:38:54;2.20;;;0.70;;
16973;SDS011;8603;46.944;7.412;2023-04-01T05:41:51;0.80;;;0.80;;
16973;SDS011;8603;46.944;7.412;2023-04-01T05:44:19;2.67;;;1.00;;
16973;SDS011;8603;46.944;7.412;2023-04-01T05:46:47;2.23;;;1.10;;
16973;SDS011;8603;46.944;7.412;2023-04-01T05:49:18;0.77;;;0.77;;
16973;SDS011;8603;46.944;7.412;2023-04-01T05:51:44;1.90;;;0.80;;
16973;SDS011;8603;46.944;7.412;2023-04-01T05:54:12;0.63;;;0.63;;
16973;SDS011;8603;46.944;7.412;2023-04-01T05:56:44;0.97;;;0.70;;
16973;SDS011;8603;46.944;7.412;2023-04-01T05:59:12;0.93;;;0.93;;
16973;SDS011;8603;46.944;7.412;2023-04-01T06:01:41;0.93;;;0.73;;
16973;SDS011;8603;46.944;7.412;2023-04-01T06:04:17;2.00;;;1.00;;
16973;SDS011;8603;46.944;7.412;2023-04-01T06:06:50;0.70;;;0.70;;
16973;SDS011;8603;46.944;7.412;2023-04-01T06:09:26;0.67;;;0.67;;
16973;SDS011;8603;46.944;7.412;2023-04-01T06:14:51;1.70;;;0.83;;
16973;SDS011;8603;46.944;7.412;2023-04-01T06:20:21;2.33;;;0.80;;
16973;SDS011;8603;46.944;7.412;2023-04-01T06:23:23;0.93;;;0.80;;
16973;SDS011;8603;46.944;7.412;2023-04-01T06:26:35;0.80;;;0.80;;
16973;SDS011;8603;46.944;7.412;2023-04-01T06:46:57;1.03;;;0.63;;
16973;SDS011;8603;46.944;7.412;2023-04-01T06:49:31;0.67;;;0.67;;
16973;SDS011;8603;46.944;7.412;2023-04-01T06:52:23;0.53;;;0.53;;
16973;SDS011;8603;46.944;7.412;2023-04-01T06:55:17;0.63;;;0.63;;
16973;SDS011;8603;46.944;7.412;2023-04-01T06:58:25;1.00;;;1.00;;
16973;SDS011;8603;46.944;7.412;2023-04-01T07:00:58;1.00;;;0.90;;
16973;SDS011;8603;46.944;7.412;2023-04-01T07:03:41;0.70;;;0.70;;
16973;SDS011;8603;46.944;7.412;2023-04-01T07:06:33;1.60;;;0.80;;
16973;SDS011;8603;46.944;7.412;2023-04-01T07:09:12;0.70;;;0.70;;
16973;SDS011;8603;46.944;7.412;2023-04-01T07:15:02;0.67;;;0.67;;
16973;SDS011;8603;46.944;7.412;2023-04-01T07:17:37;0.50;;;0.50;;
16973;SDS011;8603;46.944;7.412;2023-04-01T07:20:26;0.60;;;0.60;;
16973;SDS011;8603;46.944;7.412;2023-04-01T07:22:58;0.67;;;0.67;;
16973;SDS011;8603;46.944;7.412;2023-04-01T07:28:31;0.60;;;0.60;;
16973;SDS011;8603;46.944;7.412;2023-04-01T07:36:53;0.50;;;0.50;;
16973;SDS011;8603;46.944;7.412;2023-04-01T07:51:01;0.60;;;0.60;;
16973;SDS011;8603;46.944;7.412;2023-04-01T07:53:46;0.60;;;0.60;;
16973;SDS011;8603;46.944;7.412;2023-04-01T08:07:51;0.50;;;0.50;;
16973;SDS011;8603;46.944;7.412;2023-04-01T08:13:50;0.60;;;0.60;;
16973;SDS011;8603;46.944;7.412;2023-04-01T08:20:27;1.07;;;0.70;;
16973;SDS011;8603;46.944;7.412;2023-04-01T08:23:18;0.60;;;0.60;;
16973;SDS011;8603;46.944;7.412;2023-04-01T08:28:45;0.80;;;0.80;;
16973;SDS011;8603;46.944;7.412;2023-04-01T08:31:20;0.60;;;0.60;;
16973;SDS011;8603;46.944;7.412;2023-04-01T08:34:20;0.83;;;0.70;;
16973;SDS011;8603;46.944;7.412;2023-04-01T08:37:31;1.33;;;0.60;;
16973;SDS011;8603;46.944;7.412;2023-04-01T08:39:44;0.57;;;0.57;;
16973;SDS011;8603;46.944;7.412;2023-04-01T08:42:18;0.67;;;0.67;;
16973;SDS011;8603;46.944;7.412;2023-04-01T08:45:01;0.50;;;0.50;;
16973;SDS011;8603;46.944;7.412;2023-04-01T09:07:16;1.40;;;0.60;;
16973;SDS011;8603;46.944;7.412;2023-04-01T09:19:02;4.10;;;2.37;;
16973;SDS011;8603;46.944;7.412;2023-04-01T09:25:06;0.63;;;0.63;;
16973;SDS011;8603;46.944;7.412;2023-04-01T09:30:32;0.83;;;0.83;;
16973;SDS011;8603;46.944;7.412;2023-04-01T09:36:19;0.80;;;0.80;;
16973;SDS011;8603;46.944;7.412;2023-04-01T09:39:30;0.50;;;0.50;;
16973;SDS011;8603;46.944;7.412;2023-04-01T09:53:46;2.33;;;1.07;;
16973;SDS011;8603;46.944;7.412;2023-04-01T10:01:35;0.50;;;0.50;;
16973;SDS011;8603;46.944;7.412;2023-04-01T10:04:29;1.10;;;0.60;;
16973;SDS011;8603;46.944;7.412;2023-04-01T10:07:42;0.60;;;0.60;;
16973;SDS011;8603;46.944;7.412;2023-04-01T10:27:47;1.00;;;0.77;;
16973;SDS011;8603;46.944;7.412;2023-04-01T10:30:45;0.60;;;0.60;;
16973;SDS011;8603;46.944;7.412;2023-04-01T10:42:28;0.93;;;0.70;;
16973;SDS011;8603;46.944;7.412;2023-04-01T10:53:35;0.63;;;0.40;;
16973;SDS011;8603;46.944;7.412;2023-04-01T10:56:29;0.80;;;0.53;;
16973;SDS011;8603;46.944;7.412;2023-04-01T11:08:55;0.40;;;0.40;;
16973;SDS011;8603;46.944;7.412;2023-04-01T11:38:30;1.30;;;0.77;;
16973;SDS011;8603;46.944;7.412;2023-04-01T11:47:48;1.33;;;0.60;;
16973;SDS011;8603;46.944;7.412;2023-04-01T11:50:39;1.20;;;0.70;;
16973;SDS011;8603;46.944;7.412;2023-04-01T11:56:07;0.50;;;0.50;;
16973;SDS011;8603;46.944;7.412;2023-04-01T11:58:53;0.60;;;0.60;;
16973;SDS011;8603;46.944;7.412;2023-04-01T12:11:15;0.60;;;0.60;;
16973;SDS011;8603;46.944;7.412;2023-04-01T12:26:44;0.60;;;0.60;;
16973;SDS011;8603;46.944;7.412;2023-04-01T12:30:01;0.80;;;0.60;;
16973;SDS011;8603;46.944;7.412;2023-04-01T12:33:42;1.07;;;0.80;;
16973;SDS011;8603;46.944;7.412;2023-04-01T12:38:48;1.10;;;0.60;;
16973;SDS011;8603;46.944;7.412;2023-04-01T12:41:49;0.93;;;0.70;;
16973;SDS011;8603;46.944;7.412;2023-04-01T12:50:42;0.70;;;0.70;;
16973;SDS011;8603;46.944;7.412;2023-04-01T12:53:35;0.70;;;0.60;;
16973;SDS011;8603;46.944;7.412;2023-04-01T13:02:48;0.50;;;0.50;;
16973;SDS011;8603;46.944;7.412;2023-04-01T13:27:46;0.97;;;0.90;;
16973;SDS011;8603;46.944;7.412;2023-04-01T13:39:31;0.60;;;0.60;;
16973;SDS011;8603;46.944;7.412;2023-04-01T13:45:01;0.67;;;0.63;;
16973;SDS011;8603;46.944;7.412;2023-04-01T13:57:16;0.60;;;0.60;;
16973;SDS011;8603;46.944;7.412;2023-04-01T14:15:50;1.10;;;0.80;;
16973;SDS011;8603;46.944;7.412;2023-04-01T14:28:25;1.13;;;0.90;;
16973;SDS011;8603;46.944;7.412;2023-04-01T15:35:41;1.93;;;1.67;;
16973;SDS011;8603;46.944;7.412;2023-04-01T16:11:29;0.93;;;0.70;;
16973;SDS011;8603;46.944;7.412;2023-04-01T16:17:31;0.77;;;0.63;;
16973;SDS011;8603;46.944;7.412;2023-04-01T16:23:18;1.23;;;1.13;;
16973;SDS011;8603;46.944;7.412;2023-04-01T16:25:49;0.70;;;0.70;;
16973;SDS011;8603;46.944;7.412;2023-04-01T16:29:03;3.20;;;0.90;;
16973;SDS011;8603;46.944;7.412;2023-04-01T16:35:30;2.80;;;1.10;;
16973;SDS011;8603;46.944;7.412;2023-04-01T16:41:05;1.80;;;0.70;;
16973;SDS011;8603;46.944;7.412;2023-04-01T22:20:35;2.30;;;1.30;;
16973;SDS011;8603;46.944;7.412;2023-04-01T22:48:24;1.93;;;1.07;;
16973;SDS011;8603;46.944;7.412;2023-04-01T22:57:57;1.13;;;1.07;;
16973;SDS011;8603;46.944;7.412;2023-04-01T23:10:01;2.63;;;0.90;;
16973;SDS011;8603;46.944;7.412;2023-04-01T23:12:33;1.13;;;0.90;;
16973;SDS011;8603;46.944;7.412;2023-04-01T23:15:04;1.17;;;1.07;;
16973;SDS011;8603;46.944;7.412;2023-04-01T23:17:47;0.80;;;0.80;;
16973;SDS011;8603;46.944;7.412;2023-04-01T23:26:35;1.27;;;1.07;;
16973;SDS011;8603;46.944;7.412;2023-04-01T23:29:16;1.00;;;0.90;;
16973;SDS011;8603;46.944;7.412;2023-04-01T23:32:00;0.83;;;0.83;;
16973;SDS011;8603;46.944;7.412;2023-04-01T23:34:51;0.87;;;0.87;;
16973;SDS011;8603;46.944;7.412;2023-04-01T23:38:00;1.20;;;1.10;;
16973;SDS011;8603;46.944;7.412;2023-04-01T23:40:54;0.80;;;0.80;;
16973;SDS011;8603;46.944;7.412;2023-04-01T23:43:48;0.97;;;0.97;;
16973;SDS011;8603;46.944;7.412;2023-04-01T23:54:31;0.80;;;0.80;;
